Historique des stations

Station météo de Etrechet

Altitude de la station : 156 m







Données météorologiques pour le 20/06/2021
Date
Heure
Températures Humidité Point de rosée Vitesse
du vent
Direction Rafales Windchill Pression Pluviométrie
Cumul
Date
Heure
Températures Humidité Point de rosée Vitesse
du vent
Direction Rafales Windchill Pression Pluviométrie
Cumul
20/06/2021 09:4417.4 °C97 %17.2 °C8 km/hS13 km/h17.2 1010 hPa1.6 mm
20/06/2021 09:2917.5 °C97 %17.2 °C2 km/hSSE13 km/h17.8 1010 hPa1.2 mm
20/06/2021 09:1417.6 °C97 %17.2 °C8 km/hSSO10 km/h17.8 1010 hPa0.8 mm
20/06/2021 08:5917.5 °C97 %17.2 °C6 km/hSSO11 km/h17.8 1010 hPa0.2 mm
20/06/2021 08:4417.4 °C97 %17.2 °C2 km/hE13 km/h17.2 1009 hPa0.2 mm
20/06/2021 08:2917.4 °C97 %17.2 °C6 km/hENE19 km/h17.2 1008 hPa0.2 mm
20/06/2021 08:1417.1 °C97 %16.7 °C5 km/hE19 km/h17.2 1008 hPa0.2 mm
20/06/2021 07:5917.0 °C97 %16.7 °C5 km/hE14 km/h17.2 1008 hPa0.2 mm
20/06/2021 07:4417.1 °C97 %16.7 °C11 km/hENE14 km/h16.7 1008 hPa-
20/06/2021 07:2916.5 °C97 %16.1 °C2 km/hENE6 km/h16.7 1008 hPa-
20/06/2021 07:1416.1 °C96 %15.6 °C3 km/hE8 km/h16.1 1008 hPa-
20/06/2021 06:5916.1 °C96 %15.6 °C2 km/hE10 km/h16.1 1009 hPa-
20/06/2021 06:4415.9 °C96 %15.6 °C---16.1 1009 hPa-
20/06/2021 06:2915.9 °C96 %15.6 °C---16.1 1009 hPa-
20/06/2021 06:1415.9 °C96 %15.6 °C2 km/hE3 km/h16.1 1009 hPa-
20/06/2021 05:5915.9 °C96 %15.6 °C---16.1 1009 hPa-
20/06/2021 05:4415.9 °C96 %15.6 °C-E5 km/h16.1 1009 hPa-
20/06/2021 05:2915.8 °C96 %15.0 °C2 km/hS3 km/h16.1 1009 hPa-
20/06/2021 05:1415.7 °C96 %15.0 °C2 km/hS3 km/h15.6 1010 hPa-
20/06/2021 04:5915.6 °C96 %15.0 °C---15.6 1010 hPa-
20/06/2021 04:4415.6 °C95 %15.0 °C---15.6 1010 hPa-
20/06/2021 04:2915.7 °C95 %15.0 °C2 km/hSSO2 km/h15.6 1010 hPa-
20/06/2021 04:1415.8 °C95 %15.0 °C2 km/hSO3 km/h15.6 1010 hPa-
20/06/2021 03:5915.8 °C96 %15.0 °C-SO3 km/h15.6 1010 hPa-
20/06/2021 03:4415.7 °C95 %15.0 °C2 km/hSSO3 km/h15.6 1011 hPa-
20/06/2021 03:2915.9 °C95 %15.0 °C2 km/hSSE5 km/h16.1 1011 hPa-
20/06/2021 03:1515.9 °C95 %15.0 °C-SSE3 km/h16.1 1011 hPa-
20/06/2021 03:0016.0 °C95 %15.0 °C6 km/hS8 km/h16.1 1011 hPa-
20/06/2021 02:4516.1 °C95 %15.6 °C3 km/hS5 km/h16.1 1011 hPa-
20/06/2021 02:3016.6 °C95 %15.6 °C2 km/hS6 km/h16.7 1011 hPa-
20/06/2021 02:1416.8 °C95 %16.1 °C3 km/hSSE8 km/h16.7 1011 hPa-
20/06/2021 01:5916.9 °C95 %16.1 °C-SSE2 km/h16.7 1011 hPa-
20/06/2021 01:4417.2 °C95 %16.7 °C3 km/hSSE6 km/h17.2 1011 hPa-
20/06/2021 01:2817.2 °C94 %16.1 °C5 km/hSSE6 km/h17.2 1011 hPa-
20/06/2021 01:1417.4 °C94 %16.7 °C2 km/hS5 km/h17.2 1011 hPa-
20/06/2021 00:5917.7 °C94 %16.7 °C-SE2 km/h17.8 1011 hPa-
20/06/2021 00:4417.9 °C95 %17.2 °C2 km/hSSE10 km/h17.8 1011 hPa-
20/06/2021 00:2918.0 °C94 %17.2 °C2 km/hSSE11 km/h17.8 1011 hPa-
20/06/2021 00:1418.2 °C94 %17.2 °C5 km/hS8 km/h18.3 1011 hPa-


Minima :

Température : 15.6 °C
Humidité : 94 %
Point de rosée : 15.0 °C
Vent moyen : 2 km/h
Windchill : 15.6
Pression atm. : 1008 hPa
Maxima :

Température : 18.2 °C
Humidité : 97 %
Point de rosée : 17.2 °C
Vent moyen : 11 km/h
Windchill : 18.3
Pression atm. : 1011 hPa
Rafales max : 19 km/h
Cumul de pluie sur 24H : 1.6 mm

Etrechet est une commune du département Indre (36).
La station météorologique du réseau de l'association la plus proche de Etrechet est celle de Saint-Maur



Icône Facebook Association Météo Centre Icône Twitter Association Météo Centre Icône Chaîne Youtube Association Météo Centre Icône contact Association Météo Centre Icône Insta Association Météo Centre